Aviation Digital Data Service (ADDS)

Output produced by METARs form (1424 UTC 10 July 2020)
found at http://www.aviationweather.gov/metar/data/
 
KSTF 101415Z AUTO 25003KT 10SM SCT032 27/24 A3000 RMK AO2
KSTF 101355Z AUTO 00000KT 10SM CLR 26/24 A3000 RMK AO2
KSTF 101335Z AUTO 00000KT 10SM CLR 26/23 A2999 RMK AO2
KSTF 101315Z AUTO 00000KT 10SM CLR 25/23 A2999 RMK AO2
KSTF 101255Z AUTO 00000KT 10SM CLR 23/23 A2999 RMK AO2
KSTF 101235Z AUTO 00000KT 10SM CLR 22/22 A2999 RMK AO2
KSTF 101215Z AUTO 00000KT 10SM CLR 22/22 A2998 RMK AO2
KSTF 101155Z AUTO 00000KT 10SM CLR 21/21 A2998 RMK AO2
KSTF 101135Z AUTO 00000KT 7SM CLR 21/21 A2999 RMK AO2
KSTF 101115Z AUTO 00000KT 7SM CLR 21/21 A2998 RMK AO2
KSTF 101055Z AUTO 00000KT 10SM CLR 21/20 A2998 RMK AO2
KSTF 101035Z AUTO 00000KT 10SM CLR 21/21 A2997 RMK AO2
KSTF 101015Z AUTO 00000KT 10SM CLR 21/21 A2996 RMK AO2
KSTF 100955Z AUTO 00000KT 10SM CLR 21/21 A2996 RMK AO2
KSTF 100935Z AUTO 00000KT 10SM CLR 21/21 A2996 RMK AO2
KSTF 100915Z AUTO 00000KT 10SM CLR 21/21 A2996 RMK AO2
KSTF 100855Z AUTO 00000KT 10SM CLR 21/21 A2996 RMK AO2
KSTF 100835Z AUTO 00000KT 10SM SCT035 21/21 A2996 RMK AO2
KSTF 100815Z AUTO 00000KT 10SM BKN037 21/21 A2996 RMK AO2
KSTF 100755Z AUTO 00000KT 10SM BKN039 BKN044 21/21 A2996 RMK AO2
KSTF 100735Z AUTO 00000KT 10SM OVC040 21/21 A2996 RMK AO2
KSTF 100715Z AUTO 00000KT 10SM BKN040 21/21 A2997 RMK AO2
KSTF 100655Z AUTO 00000KT 10SM CLR 21/21 A2997 RMK AO2
KSTF 100635Z AUTO 00000KT 10SM CLR 21/21 A2997 RMK AO2
KSTF 100615Z AUTO 00000KT 10SM CLR 21/21 A2997 RMK AO2
KSTF 100555Z AUTO 00000KT 7SM CLR 21/21 A2997 RMK AO2
KSTF 100535Z AUTO 00000KT 10SM CLR 21/21 A2996 RMK AO2
KSTF 100515Z AUTO 00000KT 10SM CLR 21/21 A2996 RMK AO2
KSTF 100455Z AUTO 00000KT 10SM CLR 21/21 A2995 RMK AO2
KSTF 100435Z AUTO 00000KT 10SM CLR 21/21 A2995 RMK AO2
KSTF 100415Z AUTO 00000KT 10SM CLR 21/21 A2995 RMK AO2
KSTF 100355Z AUTO 00000KT 10SM CLR 21/21 A2995 RMK AO2
KSTF 100335Z AUTO 00000KT 10SM CLR 22/21 A2994 RMK AO2
KSTF 100315Z AUTO 00000KT 10SM CLR 22/21 A2994 RMK AO2
KSTF 100255Z AUTO 00000KT 10SM CLR 22/21 A2993 RMK AO2
KSTF 100235Z AUTO 00000KT 10SM CLR 22/21 A2992 RMK AO2
KSTF 100215Z AUTO 00000KT 10SM CLR 22/22 A2991 RMK AO2
KSTF 100155Z AUTO 00000KT 10SM SCT080 22/22 A2988 RMK AO2 P0001
KSTF 100135Z AUTO 00000KT 10SM -RA SCT048 SCT060 BKN090 23/22 A2988 RMK AO2 P0001
KSTF 100115Z AUTO 00000KT 10SM -DZ SCT050 SCT060 BKN095 23/21 A2990 RMK AO2
KSTF 100055Z AUTO 25003KT 10SM CLR 23/21 A2992 RMK AO2
KSTF 100035Z AUTO 25003KT 10SM SCT023 SCT033 SCT041 24/21 A2993 RMK AO2
KSTF 100015Z AUTO 27012G17KT 252V312 10SM SCT023 SCT032 SCT041 26/22 A2994 RMK AO2
KSTF 092355Z AUTO 00000KT 10SM SCT026 SCT031 SCT040 27/25 A2993 RMK AO2
KSTF 092335Z AUTO 00000KT 10SM SCT024 SCT035 SCT044 28/25 A2992 RMK AO2
KSTF 092315Z AUTO 00000KT 10SM CLR 29/24 A2992 RMK AO2
KSTF 092255Z AUTO 19003KT 10SM CLR 29/24 A2991 RMK AO2
KSTF 092235Z AUTO 00000KT 10SM CLR 29/23 A2992 RMK AO2
KSTF 092215Z AUTO 00000KT 10SM CLR 29/24 A2993 RMK AO2
KSTF 092155Z AUTO 27003KT 10SM CLR 28/25 A2992 RMK AO2
KSTF 092135Z AUTO 00000KT 10SM SCT032 27/23 A2992 RMK AO2
KSTF 092115Z AUTO 00000KT 10SM BKN032 BKN049 BKN055 24/22 A2994 RMK AO2
KSTF 092055Z AUTO 26004G10KT 5SM -RA SCT006 BKN023 OVC055 23/21 A2994 RMK AO2 P0059
KSTF 092035Z AUTO 36017G26KT 312V032 3SM +RA SCT008 BKN028 OVC044 25/21 A2993 RMK AO2 P0016
KSTF 092015Z AUTO 36007KT 10SM SCT030 BKN038 BKN044 30/23 A2992 RMK AO2
KSTF 091955Z AUTO 22004KT 10SM SCT028 SCT047 SCT055 31/24 A2992 RMK AO2
KSTF 091935Z AUTO 27005KT 10SM SCT026 SCT047 31/23 A2993 RMK AO2
KSTF 091915Z AUTO 26003KT 10SM CLR 30/23 A2994 RMK AO2
KSTF 091855Z AUTO 21003KT 10SM SCT026 SCT031 SCT047 31/23 A2995 RMK AO2
KSTF 091835Z AUTO 00000KT 10SM SCT026 SCT034 SCT041 30/23 A2995 RMK AO2
KSTF 091815Z AUTO 17004KT 10SM SCT023 SCT032 SCT039 30/23 A2996 RMK AO2
KSTF 091755Z AUTO 00000KT 10SM SCT021 SCT029 SCT037 29/23 A2996 RMK AO2
KSTF 091735Z AUTO 00000KT 10SM SCT021 SCT029 BKN037 28/23 A2996 RMK AO2
KSTF 091715Z AUTO 20003KT 10SM SCT021 SCT029 BKN048 28/23 A2997 RMK AO2
KSTF 091655Z AUTO 00000KT 10SM SCT017 SCT023 BKN029 28/24 A2997 RMK AO2
KSTF 091635Z AUTO 29003KT 10SM BKN015 BKN025 OVC029 27/24 A2997 RMK AO2
KSTF 091615Z AUTO 21004KT 10SM BKN013 BKN025 BKN035 27/24 A2997 RMK AO2
KSTF 091555Z AUTO 00000KT 10SM BKN011 BKN016 OVC028 27/24 A2997 RMK AO2
KSTF 091535Z AUTO 00000KT 10SM BKN011 BKN018 OVC030 26/24 A2997 RMK AO2
KSTF 091515Z AUTO 00000KT 10SM BKN009 OVC013 26/23 A2997 RMK AO2
KSTF 091455Z AUTO 22003KT 10SM OVC009 25/23 A2997 RMK AO2
KSTF 091435Z AUTO 00000KT 10SM OVC009 25/23 A2996 RMK AO2
KSTF 091415Z AUTO 00000KT 10SM OVC009 25/23 A2996 RMK AO2
KSTF 091355Z AUTO 00000KT 10SM OVC009 25/23 A2996 RMK AO2
KSTF 091335Z AUTO 00000KT 10SM BKN007 BKN023 25/23 A2997 RMK AO2
KSTF 091315Z AUTO 00000KT 10SM BKN005 BKN023 24/22 A2997 RMK AO2
KSTF 091255Z AUTO 00000KT 10SM BKN005 BKN085 23/22 A2997 RMK AO2
KSTF 091235Z AUTO 00000KT 10SM SCT003 BKN007 BKN033 22/22 A2996 RMK AO2
KSTF 091215Z AUTO 00000KT 10SM SCT002 OVC007 22/22 A2996 RMK AO2
KSTF 091155Z AUTO 00000KT 10SM OVC007 22/22 A2996 RMK AO2
KSTF 091135Z AUTO 00000KT 10SM BKN007 BKN030 OVC050 22/21 A2996 RMK AO2
KSTF 091115Z AUTO 00000KT 10SM SCT027 BKN034 OVC050 22/21 A2995 RMK AO2
KSTF 091055Z AUTO 00000KT 10SM SCT002 BKN025 OVC032 22/21 A2995 RMK AO2
KSTF 091035Z AUTO 00000KT 10SM BKN002 BKN007 OVC032 22/21 A2994 RMK AO2
KSTF 091015Z AUTO 00000KT 10SM SCT024 BKN031 BKN046 22/21 A2993 RMK AO2
KSTF 090955Z AUTO 00000KT 10SM BKN027 BKN031 OVC060 22/21 A2993 RMK AO2
KSTF 090935Z AUTO 00000KT 10SM SCT025 BKN032 OVC048 22/21 A2993 RMK AO2
KSTF 090915Z AUTO 00000KT 10SM SCT029 BKN048 OVC070 22/21 A2992 RMK AO2
KSTF 090855Z AUTO 00000KT 10SM SCT020 BKN024 OVC070 22/22 A2992 RMK AO2
KSTF 090835Z AUTO 00000KT 10SM BKN026 BKN060 OVC075 22/22 A2992 RMK AO2
KSTF 090815Z AUTO 00000KT 10SM SCT024 BKN060 OVC075 22/21 A2992 RMK AO2
KSTF 090755Z AUTO 00000KT 10SM BKN026 BKN048 22/21 A2992 RMK AO2
KSTF 090735Z AUTO 00000KT 10SM SCT026 22/22 A2992 RMK AO2
KSTF 090715Z AUTO 00000KT 10SM CLR 22/22 A2992 RMK AO2
KSTF 090655Z AUTO 20003KT 10SM CLR 22/22 A2992 RMK AO2
KSTF 090635Z AUTO 18003KT 10SM SCT021 22/22 A2992 RMK AO2
KSTF 090615Z AUTO 00000KT 10SM BKN021 22/22 A2993 RMK AO2
KSTF 090555Z AUTO 20003KT 10SM SCT019 BKN023 22/22 A2993 RMK AO2
KSTF 090535Z AUTO 20003KT 10SM SCT016 SCT023 22/22 A2994 RMK AO2
KSTF 090515Z AUTO 21004KT 10SM SCT019 SCT055 BKN075 22/22 A2994 RMK AO2
KSTF 090455Z AUTO 19004KT 10SM SCT010 SCT025 BKN075 23/22 A2994 RMK AO2
KSTF 090435Z AUTO 00000KT 10SM SCT010 SCT027 OVC065 23/22 A2995 RMK AO2
KSTF 090415Z AUTO 19003KT 10SM SCT020 SCT065 OVC070 23/22 A2995 RMK AO2
KSTF 090355Z AUTO 00000KT 10SM SCT020 BKN060 23/22 A2995 RMK AO2
KSTF 090335Z AUTO 17004KT 10SM BKN020 BKN024 23/22 A2995 RMK AO2
KSTF 090315Z AUTO 00000KT 10SM SCT018 SCT022 SCT029 23/22 A2995 RMK AO2
KSTF 090255Z AUTO 12003KT 10SM SCT020 BKN026 BKN032 23/23 A2995 RMK AO2
KSTF 090235Z AUTO 12003KT 10SM SCT020 OVC026 23/23 A2995 RMK AO2
KSTF 090215Z AUTO 00000KT 10SM BKN024 OVC030 23/23 A2994 RMK AO2
KSTF 090155Z AUTO 00000KT 10SM BKN026 OVC033 23/23 A2994 RMK AO2
KSTF 090135Z AUTO 00000KT 10SM SCT028 SCT035 23/22 A2993 RMK AO2
KSTF 090115Z AUTO 00000KT 10SM CLR 23/23 A2992 RMK AO2
KSTF 090055Z AUTO 00000KT 10SM CLR 25/23 A2992 RMK AO2
KSTF 090035Z AUTO 00000KT 10SM CLR 25/23 A2992 RMK AO2
KSTF 090015Z AUTO 18003KT 10SM CLR 25/23 A2991 RMK AO2
KSTF 082355Z AUTO 21003KT 10SM SCT013 25/23 A2992 RMK AO2
KSTF 082335Z AUTO 19005KT 10SM SCT011 BKN016 25/23 A2994 RMK AO2
KSTF 082315Z AUTO 19004KT 10SM SCT009 25/23 A2994 RMK AO2
KSTF 082255Z AUTO 17004KT 10SM SCT009 SCT021 25/23 A2994 RMK AO2
KSTF 082235Z AUTO 20004KT 10SM CLR 25/23 A2995 RMK AO2
KSTF 082215Z AUTO 00000KT 10SM CLR 25/23 A2995 RMK AO2
KSTF 082155Z AUTO 00000KT 10SM SCT024 SCT029 SCT034 24/23 A2995 RMK AO2
KSTF 082135Z AUTO 24003KT 10SM SCT120 25/22 A2995 RMK AO2
KSTF 082115Z AUTO 21004KT 10SM SCT120 25/23 A2995 RMK AO2
KSTF 082055Z AUTO 19004KT 10SM SCT100 SCT120 25/23 A2995 RMK AO2
KSTF 082035Z AUTO 00000KT 10SM SCT100 25/23 A2996 RMK AO2
KSTF 082015Z AUTO 00000KT 10SM SCT032 SCT041 24/23 A2995 RMK AO2
KSTF 081955Z AUTO 00000KT 7SM SCT027 SCT032 BKN041 22/22 A2996 RMK AO2 P0010
KSTF 081935Z AUTO 00000KT 10SM -RA OVC041 22/21 A2997 RMK AO2 P0009
KSTF 081915Z AUTO 00000KT 7SM -RA BKN041 OVC050 21/21 A2998 RMK AO2 P0005
KSTF 081855Z AUTO 00000KT 7SM -RA SCT034 BKN049 OVC055 22/21 A2999 RMK AO2 P0007
KSTF 081835Z AUTO 00000KT 10SM DZ SCT030 BKN038 OVC047 22/21 A3000 RMK AO2 P0004
KSTF 081815Z AUTO 27003KT 7SM DZ SCT029 BKN043 OVC075 23/22 A3000 RMK AO2 P0002
KSTF 081755Z AUTO 27003KT 10SM DZ SCT048 SCT060 OVC075 25/23 A3001 RMK AO2
KSTF 081735Z AUTO 00000KT 10SM SCT033 BKN050 OVC055 26/23 A3001 RMK AO2
KSTF 081715Z AUTO 00000KT 10SM SCT035 SCT045 BKN090 26/22 A3000 RMK AO2
KSTF 081655Z AUTO 00000KT 10SM OVC090 27/23 A3000 RMK AO2
KSTF 081635Z AUTO 00000KT 10SM SCT015 SCT050 OVC080 26/22 A3002 RMK AO2
KSTF 081615Z AUTO 20003KT 10SM SCT015 OVC080 26/23 A3002 RMK AO2
KSTF 081555Z AUTO 00000KT 10SM OVC090 26/22 A3002 RMK AO2
KSTF 081535Z AUTO 00000KT 10SM OVC090 26/22 A3002 RMK AO2
KSTF 081515Z AUTO 00000KT 10SM BKN100 26/23 A3002 RMK AO2
KSTF 081455Z AUTO 00000KT 10SM SCT100 26/22 A3001 RMK AO2
KSTF 081435Z AUTO 21003KT 10SM CLR 26/23 A3001 RMK AO2
KSTF 081415Z AUTO 00000KT 10SM SCT120 24/23 A3001 RMK AO2
KSTF 081355Z AUTO 00000KT 10SM BKN120 23/22 A3002 RMK AO2
KSTF 081335Z AUTO 00000KT 10SM BKN120 23/22 A3001 RMK AO2
KSTF 081315Z AUTO 00000KT 10SM SCT085 OVC120 22/22 A3000 RMK AO2
KSTF 081255Z AUTO 00000KT 10SM OVC085 22/21 A3000 RMK AO2
KSTF 081235Z AUTO 00000KT 10SM OVC085 22/21 A3001 RMK AO2
KSTF 081215Z AUTO 00000KT 10SM OVC085 22/21 A3001 RMK AO2
KSTF 081155Z AUTO 00000KT 10SM OVC100 22/21 A3001 RMK AO2
KSTF 081135Z AUTO 00000KT 10SM OVC110 22/21 A3000 RMK AO2
KSTF 081115Z AUTO 00000KT 10SM OVC110 22/21 A3000 RMK AO2
KSTF 081055Z AUTO 00000KT 10SM BKN110 22/21 A3000 RMK AO2
KSTF 081035Z AUTO 00000KT 10SM BKN110 22/21 A3000 RMK AO2
KSTF 081015Z AUTO 00000KT 10SM OVC110 22/21 A2999 RMK AO2
KSTF 080955Z AUTO 00000KT 10SM OVC110 22/21 A2999 RMK AO2
KSTF 080935Z AUTO 00000KT 10SM SCT090 BKN110 22/21 A2999 RMK AO2
KSTF 080915Z AUTO 00000KT 10SM CLR 22/21 A2999 RMK AO2
KSTF 080855Z AUTO 00000KT 10SM SCT060 SCT110 22/22 A2999 RMK AO2
KSTF 080835Z AUTO 00000KT 10SM SCT060 SCT110 22/22 A2999 RMK AO2
KSTF 080815Z AUTO 00000KT 10SM CLR 22/22 A2999 RMK AO2
KSTF 080755Z AUTO 00000KT 10SM CLR 22/22 A2998 RMK AO2
KSTF 080735Z AUTO 00000KT 10SM CLR 22/22 A2998 RMK AO2
KSTF 080715Z AUTO 00000KT 10SM CLR 22/21 A2997 RMK AO2
KSTF 080655Z AUTO 00000KT 10SM CLR 22/21 A2998 RMK AO2
KSTF 080635Z AUTO 00000KT 10SM CLR 22/21 A2999 RMK AO2
KSTF 080615Z AUTO 00000KT 10SM CLR 22/21 A3000 RMK AO2
KSTF 080555Z AUTO 00000KT 10SM CLR 22/21 A3000 RMK AO2
KSTF 080535Z AUTO 00000KT 10SM CLR 22/21 A3000 RMK AO2
KSTF 080515Z AUTO 00000KT 10SM CLR 22/21 A3000 RMK AO2
KSTF 080455Z AUTO 00000KT 10SM CLR 22/21 A3000 RMK AO2
KSTF 080435Z AUTO 00000KT 10SM CLR 22/21 A3000 RMK AO2
KSTF 080415Z AUTO 00000KT 10SM CLR 22/21 A2999 RMK AO2
KSTF 080355Z AUTO 00000KT 10SM CLR 22/21 A2998 RMK AO2
KSTF 080335Z AUTO 00000KT 10SM CLR 22/21 A2997 RMK AO2
KSTF 080315Z AUTO 00000KT 10SM CLR 22/21 A2997 RMK AO2
KSTF 080255Z AUTO 00000KT 10SM CLR 22/21 A2998 RMK AO2
KSTF 080235Z AUTO 00000KT 10SM CLR 22/21 A2998 RMK AO2
KSTF 080215Z AUTO 00000KT 10SM CLR 22/21 A2999 RMK AO2
KSTF 080155Z AUTO 19004KT 10SM -RA CLR 21/21 A3000 RMK AO2 P0004
KSTF 080135Z AUTO 20005KT 10SM -DZ SCT031 SCT050 BKN110 21/21 A2999 RMK AO2 P0003
KSTF 080115Z AUTO 23005KT 7SM DZ SCT017 BKN033 OVC050 21/21 A3000 RMK AO2 P0003
KSTF 080055Z AUTO 00000KT 4SM -RA SCT006 BKN018 OVC036 21/21 A3000 RMK AO2 P0092
KSTF 080035Z AUTO 05004KT 1 1/2SM +RA BKN006 OVC014 22/21 A3000 RMK AO2 P0077
KSTF 080015Z AUTO 01003KT 10SM SCT004 BKN028 OVC032 23/22 A3000 RMK AO2 P0002
KSTF 072355Z AUTO 06008G28KT 1 1/2SM +RA SCT004 OVC024 25/21 A2999 RMK AO2 VIS 3/4V5 P0053
KSTF 072335Z AUTO 25007KT 10SM SCT022 SCT026 OVC045 27/22 A2996 RMK AO2
KSTF 072315Z AUTO 00000KT 10SM SCT050 SCT055 28/23 A2995 RMK AO2
KSTF 072255Z AUTO 00000KT 10SM SCT085 28/23 A2995 RMK AO2
KSTF 072235Z AUTO 00000KT 10SM SCT085 28/23 A2995 RMK AO2
KSTF 072215Z AUTO 29003KT 10SM CLR 30/23 A2995 RMK AO2
KSTF 072155Z AUTO 00000KT 10SM CLR 30/22 A2995 RMK AO2
KSTF 072135Z AUTO 00000KT 10SM CLR 30/22 A2995 RMK AO2
KSTF 072115Z AUTO 30003KT 10SM CLR 30/22 A2995 RMK AO2
KSTF 072055Z AUTO 31003KT 10SM SCT040 SCT048 30/22 A2995 RMK AO2
KSTF 072035Z AUTO 30006KT 10SM SCT040 31/22 A2996 RMK AO2
KSTF 072015Z AUTO 31003KT 10SM SCT040 SCT047 31/22 A2995 RMK AO2
KSTF 071955Z AUTO 00000KT 10SM SCT037 SCT044 31/22 A2996 RMK AO2
KSTF 071935Z AUTO 00000KT 10SM BKN037 BKN044 BKN055 30/22 A2997 RMK AO2
KSTF 071915Z AUTO 00000KT 10SM SCT035 SCT044 30/22 A2998 RMK AO2
KSTF 071855Z AUTO 00000KT 10SM CLR 30/22 A2999 RMK AO2
KSTF 071835Z AUTO 30003KT 10SM SCT040 SCT047 30/22 A3000 RMK AO2
KSTF 071815Z AUTO 05003KT 10SM SCT030 SCT055 29/22 A3001 RMK AO2
KSTF 071755Z AUTO 05004KT 10SM SCT033 SCT043 BKN055 28/22 A3001 RMK AO2
KSTF 071735Z AUTO 04004KT 10SM SCT027 SCT035 30/22 A3002 RMK AO2
KSTF 071715Z AUTO 03005KT 10SM SCT024 SCT031 28/22 A3002 RMK AO2
KSTF 071655Z AUTO 00000KT 10SM SCT022 28/23 A3002 RMK AO2
KSTF 071635Z AUTO 04004KT 10SM CLR 28/22 A3003 RMK AO2
KSTF 071615Z AUTO 29003KT 10SM CLR 28/23 A3003 RMK AO2
KSTF 071555Z AUTO 32004KT 10SM SCT017 27/23 A3003 RMK AO2
KSTF 071535Z AUTO 00000KT 10SM SCT015 26/23 A3003 RMK AO2
KSTF 071515Z AUTO 00000KT 10SM SCT013 26/22 A3003 RMK AO2
KSTF 071455Z AUTO 00000KT 10SM SCT015 26/23 A3003 RMK AO2
KSTF 071435Z AUTO 33003KT 10SM CLR 26/23 A3002 RMK AO2